Time;durP1;ratioP1;P1;durP2;ratioP2;P2;SDS_P1;SDS_P2;PMS_P1;PMS_P2;Temp;Humidity;BMP_temperature;BMP_pressure;BME280_temperature;BME280_humidity;BME280_pressure;Samples;Min_cycle;Max_cycle;Signal;HPM_P1;HPM_P2
2024/02/04 00:02:39;;;;;;;8.63;2.30;;;;;;;7.03;100.00;100409.80;5241592;54;1140611;-77
2024/02/04 00:07:44;;;;;;;9.40;1.70;;;;;;;7.03;100.00;100399.75;5241120;54;1138543;-77
2024/02/04 00:12:50;;;;;;;2.93;1.00;;;;;;;7.01;100.00;100376.68;5221161;54;1138747;-76
2024/02/04 00:17:56;;;;;;;6.10;1.57;;;;;;;6.99;100.00;100385.14;5214950;55;1138823;-78
2024/02/04 00:23:01;;;;;;;6.80;1.53;;;;;;;6.97;100.00;100389.17;5242056;53;1138567;-77
2024/02/04 00:28:07;;;;;;;6.63;1.73;;;;;;;6.99;100.00;100375.94;5228463;54;1138657;-78
2024/02/04 00:33:13;;;;;;;6.83;1.52;;;;;;;6.96;100.00;100387.48;5226847;54;1138820;-77
2024/02/04 00:38:19;;;;;;;8.08;3.17;;;;;;;6.94;100.00;100392.47;5206321;54;1138618;-78
2024/02/04 00:43:24;;;;;;;3.70;1.20;;;;;;;6.92;100.00;100393.88;5263648;54;1138686;-77
2024/02/04 00:48:30;;;;;;;13.60;2.40;;;;;;;6.92;100.00;100389.09;5304976;54;1138809;-78
2024/02/04 00:53:36;;;;;;;7.17;1.60;;;;;;;6.93;100.00;100388.99;5284242;54;1140769;-76
2024/02/04 00:58:42;;;;;;;5.80;2.07;;;;;;;6.97;100.00;100394.44;5284380;54;1138937;-76
2024/02/04 01:03:48;;;;;;;6.27;1.67;;;;;;;6.96;100.00;100384.02;5284267;54;1138867;-77
2024/02/04 01:08:54;;;;;;;6.43;1.30;;;;;;;6.93;100.00;100387.67;5300174;54;1138591;-77
2024/02/04 01:13:59;;;;;;;7.97;1.90;;;;;;;6.91;100.00;100384.30;5263885;54;1138535;-77
2024/02/04 01:19:05;;;;;;;10.90;1.40;;;;;;;6.90;100.00;100365.52;5189765;54;1138744;-77
2024/02/04 01:24:10;;;;;;;6.93;1.90;;;;;;;6.83;100.00;100380.49;5244459;54;1140767;-77
2024/02/04 01:29:16;;;;;;;6.50;1.27;;;;;;;6.79;100.00;100405.28;5231676;54;1138969;-78
2024/02/04 01:34:21;;;;;;;6.63;1.80;;;;;;;6.78;100.00;100402.27;5175537;54;1136623;-76
2024/02/04 01:39:27;;;;;;;10.17;2.83;;;;;;;6.77;100.00;100380.88;5195056;54;1136797;-78
2024/02/04 01:44:33;;;;;;;13.05;2.37;;;;;;;6.72;100.00;100385.13;5259608;54;1138574;-77
2024/02/04 01:49:39;;;;;;;7.23;1.47;;;;;;;6.66;100.00;100384.20;5262985;54;1138758;-76
2024/02/04 01:54:48;;;;;;;9.10;1.90;;;;;;;6.60;100.00;100372.28;5263033;54;1136618;-78
2024/02/04 01:59:56;;;;;;;14.00;2.10;;;;;;;6.56;100.00;100367.34;5283643;54;1136460;-76
2024/02/04 02:05:02;;;;;;;9.53;1.70;;;;;;;6.48;100.00;100366.49;5262783;54;1138674;-76
2024/02/04 02:10:10;;;;;;;7.80;1.33;;;;;;;6.41;100.00;100380.97;5278116;54;1136886;-77
2024/02/04 02:15:26;;;;;;;8.70;2.22;;;;;;;6.32;100.00;100382.37;5226198;54;1136293;-77
2024/02/04 02:20:52;;;;;;;8.87;2.13;;;;;;;6.26;100.00;100402.44;5240305;54;1136499;-76
2024/02/04 02:25:59;;;;;;;7.93;1.43;;;;;;;6.22;100.00;100399.64;5230511;54;1136377;-78
2024/02/04 02:31:05;;;;;;;7.97;1.77;;;;;;;6.17;100.00;100362.31;5173208;54;1136872;-76
2024/02/04 02:36:14;;;;;;;7.00;1.80;;;;;;;6.15;100.00;100360.24;5168312;55;1136515;-76
2024/02/04 02:41:21;;;;;;;10.32;1.45;;;;;;;6.08;100.00;100350.23;5194216;54;1137122;-77
2024/02/04 02:46:27;;;;;;;1.93;0.80;;;;;;;6.06;100.00;100359.98;5294308;54;1138658;-78
2024/02/04 02:51:33;;;;;;;14.00;1.87;;;;;;;6.01;100.00;100374.69;5314571;54;1136733;-76
2024/02/04 02:56:38;;;;;;;8.47;1.63;;;;;;;5.97;100.00;100374.48;5294104;54;1138806;-77
2024/02/04 03:01:44;;;;;;;10.10;2.03;;;;;;;5.94;100.00;100394.39;5293740;54;1136733;-75
2024/02/04 03:06:49;;;;;;;9.35;1.90;;;;;;;5.93;100.00;100400.58;5294449;54;1138903;-77
2024/02/04 03:11:55;;;;;;;11.73;1.20;;;;;;;5.91;100.00;100409.85;5312384;53;1136884;-77
2024/02/04 03:17:01;;;;;;;8.97;1.97;;;;;;;5.91;100.00;100399.81;5284806;53;1138884;-76
2024/02/04 03:22:07;;;;;;;10.90;1.97;;;;;;;5.86;100.00;100392.64;5271603;54;1136223;-77
2024/02/04 03:27:12;;;;;;;6.70;2.30;;;;;;;5.84;100.00;100401.92;5227104;54;1138723;-77
2024/02/04 03:32:18;;;;;;;14.35;2.22;;;;;;;5.82;100.00;100391.98;5144541;54;1136914;-78
2024/02/04 03:37:24;;;;;;;5.72;1.65;;;;;;;5.89;100.00;100400.38;5139974;55;1138912;-77
2024/02/04 03:42:29;;;;;;;8.87;1.43;;;;;;;5.90;100.00;100393.72;5239731;54;1136723;-78
2024/02/04 03:47:35;;;;;;;6.27;1.40;;;;;;;5.89;100.00;100386.78;5279757;54;1136636;-77
2024/02/04 03:52:41;;;;;;;14.03;2.77;;;;;;;5.88;100.00;100385.53;5285235;54;1136661;-76
2024/02/04 03:57:46;;;;;;;12.97;1.70;;;;;;;5.84;100.00;100402.39;5284870;54;1138716;-77
2024/02/04 04:02:53;;;;;;;9.73;2.03;;;;;;;5.79;100.00;100404.46;5305093;54;1138694;-78
2024/02/04 04:07:59;;;;;;;8.67;2.53;;;;;;;5.74;100.00;100407.35;5216740;54;1136334;-79
2024/02/04 04:13:04;;;;;;;7.90;1.37;;;;;;;5.70;100.00;100399.74;5240299;54;1136595;-78
2024/02/04 04:18:12;;;;;;;11.20;1.90;;;;;;;5.69;100.00;100405.92;5297166;54;1136646;-77
2024/02/04 04:23:18;;;;;;;13.60;1.90;;;;;;;5.64;100.00;100409.69;5246759;54;1138745;-78
2024/02/04 04:28:23;;;;;;;8.57;1.53;;;;;;;5.63;100.00;100425.52;5206358;54;1138702;-78
2024/02/04 04:33:30;;;;;;;14.53;1.45;;;;;;;5.63;100.00;100418.48;5226461;54;1136419;-77
2024/02/04 04:38:35;;;;;;;10.43;1.70;;;;;;;5.64;100.00;100411.00;5205432;54;1138838;-78
2024/02/04 04:43:41;;;;;;;13.53;1.60;;;;;;;5.64;100.00;100411.00;5267216;54;1138678;-77
2024/02/04 04:48:46;;;;;;;10.82;1.62;;;;;;;5.62;100.00;100414.17;5272347;54;1138683;-78
2024/02/04 04:53:52;;;;;;;13.10;1.47;;;;;;;5.58;100.00;100406.56;5247519;54;1139088;-78
2024/02/04 04:58:57;;;;;;;11.57;1.60;;;;;;;5.56;100.00;100404.49;5227029;54;1138733;-77
2024/02/04 05:04:03;;;;;;;11.77;2.87;;;;;;;5.56;100.00;100396.63;5274676;54;1138612;-78
2024/02/04 05:09:09;;;;;;;10.67;1.73;;;;;;;5.53;100.00;100396.33;5305022;54;1138577;-78
2024/02/04 05:14:14;;;;;;;6.40;2.07;;;;;;;5.52;100.00;100385.46;5284790;54;1148236;-78
2024/02/04 05:19:20;;;;;;;10.93;2.22;;;;;;;5.53;100.00;100387.62;5285107;54;1136873;-77
2024/02/04 05:24:25;;;;;;;7.80;1.77;;;;;;;5.50;100.00;100378.14;5255387;54;1138565;-77
2024/02/04 05:29:33;;;;;;;11.23;2.53;;;;;;;5.49;100.00;100378.27;5206270;53;1136645;-77
2024/02/04 05:34:39;;;;;;;13.80;1.93;;;;;;;5.48;100.00;100375.26;5206358;54;1138787;-76
2024/02/04 05:39:45;;;;;;;8.37;2.93;;;;;;;5.45;100.00;100362.32;5205943;54;1138848;-77
2024/02/04 05:44:50;;;;;;;10.50;1.60;;;;;;;5.43;100.00;100362.87;5305368;54;1136856;-77
2024/02/04 05:49:56;;;;;;;20.33;3.23;;;;;;;5.32;100.00;100356.95;5284428;54;1138530;-76
2024/02/04 05:55:02;;;;;;;17.50;4.43;;;;;;;5.30;100.00;100369.31;5284670;54;1138410;-77
2024/02/04 06:00:10;;;;;;;6.80;1.73;;;;;;;5.28;100.00;100369.86;5242078;54;1138431;-76
2024/02/04 06:05:15;;;;;;;19.03;1.87;;;;;;;5.25;100.00;100367.41;5235143;54;1138343;-76
2024/02/04 06:10:21;;;;;;;10.95;1.92;;;;;;;5.20;100.00;100353.71;5238540;54;1138832;-76
2024/02/04 06:15:27;;;;;;;13.00;2.60;;;;;;;5.17;100.00;100343.43;5221404;54;1139087;-76
2024/02/04 06:20:32;;;;;;;18.53;2.83;;;;;;;5.13;100.00;100332.27;5220485;54;1138802;-77
2024/02/04 06:25:38;;;;;;;15.20;3.60;;;;;;;5.08;100.00;100315.95;5223531;54;1138654;-77
2024/02/04 06:30:44;;;;;;;7.50;2.00;;;;;;;5.06;100.00;100309.95;5258328;54;1138601;-76
2024/02/04 06:35:49;;;;;;;19.70;2.73;;;;;;;5.02;100.00;100313.70;5266455;54;1136996;-76
2024/02/04 06:40:55;;;;;;;8.50;2.10;;;;;;;4.97;100.00;100315.73;5257979;53;1138643;-76
2024/02/04 06:46:00;;;;;;;6.57;1.23;;;;;;;4.92;100.00;100323.02;5236540;54;1136718;-76
2024/02/04 06:51:06;;;;;;;12.07;1.50;;;;;;;4.90;100.00;100321.78;5256519;54;1136799;-76
2024/02/04 06:56:12;;;;;;;10.50;2.50;;;;;;;4.88;100.00;100325.45;5268171;54;1138617;-77
2024/02/04 07:01:17;;;;;;;12.03;2.33;;;;;;;4.90;100.00;100348.45;5294161;54;1138536;-77
2024/02/04 07:06:23;;;;;;;8.17;1.87;;;;;;;4.93;100.00;100358.77;5314903;54;1138965;-77
2024/02/04 07:11:28;;;;;;;15.90;2.30;;;;;;;4.97;100.00;100345.03;5294453;54;1136244;-77
2024/02/04 07:16:34;;;;;;;9.47;2.13;;;;;;;5.02;100.00;100339.92;5294151;54;1138590;-77
2024/02/04 07:21:40;;;;;;;8.57;1.83;;;;;;;5.07;100.00;100333.08;5309301;54;1136890;-76
2024/02/04 07:26:46;;;;;;;13.33;2.10;;;;;;;5.13;100.00;100320.47;5225702;54;1136851;-78
2024/02/04 07:31:51;;;;;;;17.98;4.60;;;;;;;5.20;100.00;100314.39;5203660;54;1138614;-79
2024/02/04 07:36:58;;;;;;;15.13;2.00;;;;;;;5.25;100.00;100318.91;5232124;54;1138725;-78
2024/02/04 07:42:03;;;;;;;23.27;6.67;;;;;;;5.29;100.00;100315.17;5252195;54;1138462;-79
2024/02/04 07:47:09;;;;;;;20.47;3.90;;;;;;;5.32;100.00;100306.29;5202605;54;1138572;-79
2024/02/04 07:52:15;;;;;;;16.50;4.83;;;;;;;5.38;100.00;100312.46;5288595;54;1138649;-77
2024/02/04 07:57:20;;;;;;;15.93;3.53;;;;;;;5.42;100.00;100300.86;5294535;54;1138987;-79
2024/02/04 08:02:26;;;;;;;8.97;2.07;;;;;;;5.48;100.00;100298.73;5294184;54;1138525;-78
2024/02/04 08:07:32;;;;;;;9.68;2.83;;;;;;;5.54;100.00;100306.68;5315109;54;1136621;-78
2024/02/04 08:12:38;;;;;;;11.83;2.63;;;;;;;5.61;100.00;100304.08;5291805;54;1136478;-78
2024/02/04 08:17:43;;;;;;;14.30;2.57;;;;;;;5.67;100.00;100278.77;5290824;54;1138830;-78
2024/02/04 08:22:49;;;;;;;9.10;2.17;;;;;;;5.74;100.00;100292.36;5273193;54;1138817;-78
2024/02/04 08:27:55;;;;;;;9.40;2.00;;;;;;;5.73;100.00;100281.48;5243740;54;1136391;-79
2024/02/04 08:33:00;;;;;;;8.80;2.30;;;;;;;5.82;100.00;100281.76;5156825;54;1136464;-80
2024/02/04 08:38:06;;;;;;;15.67;3.83;;;;;;;5.88;100.00;100276.17;5289955;54;1136249;-77
2024/02/04 08:43:11;;;;;;;10.18;2.50;;;;;;;5.93;100.00;100266.71;5216149;54;1138634;-77
2024/02/04 08:48:17;;;;;;;12.07;2.23;;;;;;;5.97;100.00;100274.74;5357053;54;1138341;-78
2024/02/04 08:53:23;;;;;;;20.50;3.80;;;;;;;6.02;100.00;100271.37;5374046;54;1138935;-80
2024/02/04 08:58:29;;;;;;;7.63;1.80;;;;;;;6.09;100.00;100269.22;5418638;54;1138546;-80
2024/02/04 09:03:35;;;;;;;6.50;1.83;;;;;;;6.14;100.00;100272.38;5399117;54;1136192;-80
2024/02/04 09:08:40;;;;;;;8.03;2.77;;;;;;;6.19;100.00;100271.16;5398119;54;1136290;-80
2024/02/04 09:13:46;;;;;;;27.53;4.53;;;;;;;6.24;100.00;100266.94;5398445;54;1136571;-80
2024/02/04 09:18:52;;;;;;;19.07;6.10;;;;;;;6.30;100.00;100254.23;5419471;54;1138633;-80
2024/02/04 09:23:57;;;;;;;7.33;1.43;;;;;;;6.37;100.00;100245.97;5369087;54;1139101;-79
2024/02/04 09:29:03;;;;;;;9.00;2.73;;;;;;;6.42;100.00;100251.28;5202204;54;1136630;-80
2024/02/04 09:34:08;;;;;;;9.98;2.72;;;;;;;6.47;100.00;100248.37;5269703;54;1136766;-79
2024/02/04 09:39:14;;;;;;;9.80;1.60;;;;;;;6.50;100.00;100238.51;5208380;54;1138566;-79
2024/02/04 09:44:20;;;;;;;12.67;2.40;;;;;;;6.50;100.00;100246.86;5236497;54;1136566;-81
2024/02/04 09:49:28;;;;;;;12.78;1.80;;;;;;;6.48;100.00;100256.63;5126863;56;1138758;-80
2024/02/04 09:54:37;;;;;;;13.27;2.90;;;;;;;6.46;100.00;100241.42;5152057;55;1138614;-79
2024/02/04 09:59:47;;;;;;;14.27;4.40;;;;;;;6.45;100.00;100239.73;5269373;54;1138549;-78
2024/02/04 10:04:52;;;;;;;6.57;1.73;;;;;;;6.44;100.00;100238.89;5309175;54;1142528;-80
2024/02/04 10:09:58;;;;;;;5.73;1.70;;;;;;;6.48;100.00;100216.75;5314872;54;1136721;-79
2024/02/04 10:15:04;;;;;;;5.90;2.07;;;;;;;6.56;100.00;100218.89;5331779;54;1136756;-79
2024/02/04 10:20:12;;;;;;;11.87;3.60;;;;;;;6.61;100.00;100210.20;5305396;54;1166455;-79
2024/02/04 10:25:20;;;;;;;10.00;2.67;;;;;;;6.61;100.00;100208.42;5232376;54;1138817;-80
2024/02/04 10:30:26;;;;;;;11.47;1.67;;;;;;;6.60;100.00;100208.52;5258624;54;1138954;-80
2024/02/04 10:35:32;;;;;;;14.00;3.83;;;;;;;6.55;100.00;100202.28;5284154;54;1138303;-79
2024/02/04 10:40:37;;;;;;;8.20;1.90;;;;;;;6.56;100.00;100180.31;5235561;54;1138499;-80
2024/02/04 10:45:45;;;;;;;11.43;2.20;;;;;;;6.59;100.00;100163.02;5282917;54;1138645;-77
2024/02/04 10:50:52;;;;;;;9.47;2.73;;;;;;;6.60;100.00;100155.97;5279360;54;1141107;-76
2024/02/04 10:56:01;;;;;;;6.80;1.70;;;;;;;6.59;100.00;100143.78;5300239;54;1136513;-78
2024/02/04 11:01:07;;;;;;;12.13;3.53;;;;;;;6.57;100.00;100121.55;5283434;54;1137104;-78
2024/02/04 11:06:14;;;;;;;2.97;1.07;;;;;;;6.59;100.00;100122.75;5278291;54;1138776;-75
2024/02/04 11:11:23;;;;;;;5.40;1.00;;;;;;;6.60;100.00;100106.89;5303783;54;1137138;-81
2024/02/04 11:16:47;;;;;;;4.83;1.95;;;;;;;6.62;100.00;100103.69;5283793;54;1136619;-73
2024/02/04 11:22:31;;;;;;;8.33;2.58;;;;;;;6.65;100.00;100095.61;5283334;54;1136595;-80
2024/02/04 11:27:37;;;;;;;4.67;1.50;;;;;;;6.74;100.00;100106.42;5283889;54;1136599;-79
2024/02/04 11:32:43;;;;;;;8.47;1.50;;;;;;;6.82;100.00;100100.19;5194611;55;1136842;-74
2024/02/04 11:37:49;;;;;;;9.40;2.43;;;;;;;6.87;100.00;100095.46;5282613;54;1136516;-74
2024/02/04 11:43:07;;;;;;;8.58;1.35;;;;;;;6.91;100.00;100104.33;5283292;54;1136570;-82
2024/02/04 11:48:14;;;;;;;5.90;1.97;;;;;;;6.93;100.00;100095.86;5283833;54;1136835;-75
2024/02/04 11:53:20;;;;;;;6.40;2.27;;;;;;;6.97;100.00;100084.20;5268364;54;1136597;-74
2024/02/04 11:58:26;;;;;;;4.60;1.60;;;;;;;6.96;100.00;100082.98;5279910;54;1136687;-78
2024/02/04 12:03:34;;;;;;;5.67;2.13;;;;;;;6.95;100.00;100077.36;5275053;54;1136853;-78
2024/02/04 12:08:40;;;;;;;8.13;2.10;;;;;;;6.93;100.00;100066.10;5291456;54;1136346;-72
2024/02/04 12:13:46;;;;;;;5.67;1.57;;;;;;;6.93;100.00;100070.05;5280508;55;1136983;-76
2024/02/04 12:18:52;;;;;;;4.50;2.37;;;;;;;6.92;100.00;100062.62;5281106;54;1136750;-81
2024/02/04 12:24:00;;;;;;;4.37;2.53;;;;;;;6.93;100.00;100068.26;5291070;54;1138886;-77
2024/02/04 12:29:06;;;;;;;10.10;2.37;;;;;;;6.94;100.00;100068.63;5258551;54;1139096;-77
2024/02/04 12:34:13;;;;;;;7.43;1.80;;;;;;;6.94;100.00;100061.22;5279077;53;1247051;-77
2024/02/04 12:39:19;;;;;;;5.60;1.87;;;;;;;6.95;100.00;100054.54;5326149;54;1136576;-80
2024/02/04 12:44:25;;;;;;;7.67;1.87;;;;;;;6.98;100.00;100049.55;5200240;54;1138621;-78
2024/02/04 12:49:31;;;;;;;15.38;1.50;;;;;;;6.95;100.00;100058.95;5189532;55;1136802;-76
2024/02/04 12:54:46;;;;;;;8.20;2.00;;;;;;;6.94;100.00;100038.87;5215230;55;1138746;-77
2024/02/04 12:59:52;;;;;;;32.70;10.80;;;;;;;6.93;100.00;100027.98;5204355;55;1136631;-78
2024/02/04 13:04:57;;;;;;;8.70;2.47;;;;;;;6.92;100.00;100021.88;5127762;55;1142706;-73
2024/02/04 13:10:04;;;;;;;9.47;1.70;;;;;;;6.93;100.00;100022.73;5222228;55;1136805;-78
2024/02/04 13:15:10;;;;;;;5.83;1.67;;;;;;;6.93;100.00;100017.00;5194586;54;1138519;-77
2024/02/04 13:20:16;;;;;;;13.03;2.08;;;;;;;6.95;100.00;100016.89;5287760;54;1138438;-80
2024/02/04 13:25:22;;;;;;;9.23;1.77;;;;;;;6.95;100.00;100014.27;5267132;54;1140874;-80
2024/02/04 13:30:28;;;;;;;7.62;1.72;;;;;;;6.95;100.00;100005.91;5247580;54;1136768;-77
2024/02/04 13:35:34;;;;;;;7.78;1.62;;;;;;;6.97;100.00;99992.65;5290488;54;1136575;-75
2024/02/04 13:40:40;;;;;;;5.23;1.53;;;;;;;6.99;100.00;99988.13;5310832;54;1136716;-78
2024/02/04 13:45:45;;;;;;;7.92;3.27;;;;;;;7.00;100.00;99983.23;5284750;54;1136645;-78
2024/02/04 13:50:51;;;;;;;14.10;1.73;;;;;;;7.00;100.00;99989.81;5279553;53;1134512;-77
2024/02/04 13:55:57;;;;;;;8.17;2.13;;;;;;;7.00;100.00;99982.77;5168025;54;1136505;-80
2024/02/04 14:01:03;;;;;;;4.50;1.10;;;;;;;7.01;100.00;99994.13;5139718;54;1136727;-78
2024/02/04 14:06:08;;;;;;;7.07;3.10;;;;;;;7.01;100.00;99983.61;5139446;54;1136557;-79
2024/02/04 14:11:14;;;;;;;9.77;1.70;;;;;;;7.03;100.00;99982.99;5197461;54;1136292;-78
2024/02/04 14:16:19;;;;;;;5.60;1.60;;;;;;;7.02;100.00;99974.30;5247459;54;1146115;-79
2024/02/04 14:21:25;;;;;;;16.00;2.45;;;;;;;7.03;100.00;99975.11;5277145;54;1136634;-77
2024/02/04 14:26:30;;;;;;;9.05;2.30;;;;;;;7.02;100.00;99972.98;5300377;53;1136521;-74
2024/02/04 14:31:36;;;;;;;9.10;2.67;;;;;;;7.00;100.00;99977.51;5306938;54;1134250;-84
2024/02/04 14:36:42;;;;;;;10.27;1.33;;;;;;;6.99;100.00;99973.20;5307716;54;1136366;-80
2024/02/04 14:41:48;;;;;;;8.03;1.80;;;;;;;6.96;100.00;99971.25;5343878;54;1136921;-78
2024/02/04 14:46:53;;;;;;;6.90;1.93;;;;;;;6.95;100.00;99988.81;5307486;54;1134626;-75
2024/02/04 14:52:00;;;;;;;4.40;1.57;;;;;;;6.94;100.00;99993.70;5220094;54;1136740;-79
2024/02/04 14:57:08;;;;;;;8.13;1.60;;;;;;;6.93;100.00;99969.67;5246655;54;1134822;-80
2024/02/04 15:02:13;;;;;;;9.30;2.47;;;;;;;6.98;100.00;99966.25;5230410;54;1136842;-80
2024/02/04 15:07:20;;;;;;;6.63;1.40;;;;;;;6.94;100.00;99969.20;5270280;54;1134628;-77
2024/02/04 15:12:25;;;;;;;17.60;4.37;;;;;;;6.94;100.00;99963.47;5184672;54;1134649;-82
2024/02/04 15:17:31;;;;;;;6.67;1.97;;;;;;;6.95;100.00;99952.48;5229506;54;1136530;-83
2024/02/04 15:22:38;;;;;;;12.53;2.58;;;;;;;6.92;100.00;99940.39;5216190;54;1134419;-82
2024/02/04 15:27:47;;;;;;;12.03;1.60;;;;;;;6.94;100.00;99957.38;5216324;54;1136697;-80
2024/02/04 15:32:54;;;;;;;3.03;1.33;;;;;;;6.92;100.00;99944.34;5206711;53;1136510;-82
2024/02/04 15:37:59;;;;;;;9.30;2.10;;;;;;;6.94;100.00;99949.48;5245240;53;1134423;-83
2024/02/04 15:43:05;;;;;;;7.28;1.75;;;;;;;6.93;100.00;99941.23;5226454;54;1134583;-80
2024/02/04 15:48:12;;;;;;;9.30;3.53;;;;;;;6.93;100.00;99945.17;5227138;54;1134829;-81
2024/02/04 15:53:18;;;;;;;5.10;1.53;;;;;;;6.93;100.00;99934.66;5247202;54;1134449;-81
2024/02/04 15:58:26;;;;;;;6.93;1.30;;;;;;;6.93;100.00;99940.76;5227222;54;1134828;-78
2024/02/04 16:03:32;;;;;;;7.23;1.80;;;;;;;6.91;100.00;99928.20;5185119;54;1134841;-79
2024/02/04 16:08:38;;;;;;;6.47;2.03;;;;;;;6.90;100.00;99935.72;5242359;54;1134435;-80
2024/02/04 16:13:46;;;;;;;3.25;1.12;;;;;;;6.92;100.00;99925.94;5227360;54;1134772;-79
2024/02/04 16:18:52;;;;;;;5.50;2.47;;;;;;;6.92;100.00;99923.78;5272416;54;1134619;-78
2024/02/04 16:23:57;;;;;;;5.22;1.30;;;;;;;6.92;100.00;99927.72;5253220;54;1134373;-82
2024/02/04 16:29:04;;;;;;;8.95;1.30;;;;;;;6.91;100.00;99926.04;5221381;54;1134699;-79
2024/02/04 16:34:09;;;;;;;5.73;1.27;;;;;;;6.93;100.00;99929.41;5174453;54;1134419;-82
2024/02/04 16:39:16;;;;;;;5.83;1.37;;;;;;;6.92;100.00;99927.25;5166262;54;1134412;-82
2024/02/04 16:44:21;;;;;;;3.60;1.67;;;;;;;6.89;100.00;99920.05;5262023;55;1134308;-82
2024/02/04 16:49:30;;;;;;;4.47;0.97;;;;;;;6.87;100.00;99915.41;5244572;54;1134419;-79
2024/02/04 16:54:35;;;;;;;11.37;2.37;;;;;;;6.88;100.00;99906.54;5245067;54;1134642;-82
2024/02/04 16:59:45;;;;;;;6.40;1.32;;;;;;;6.88;100.00;99908.70;5270976;54;1137002;-80
2024/02/04 17:04:51;;;;;;;10.93;2.07;;;;;;;6.88;100.00;99907.86;5274380;54;1135286;-83
2024/02/04 17:09:59;;;;;;;6.70;2.37;;;;;;;6.87;100.00;99910.99;5283660;54;1136544;-79
2024/02/04 17:15:06;;;;;;;8.00;3.13;;;;;;;6.85;100.00;99909.41;5283827;52;1134902;-79
2024/02/04 17:20:19;;;;;;;9.15;2.22;;;;;;;6.81;100.00;99894.33;5263133;53;1134654;-78
2024/02/04 17:25:29;;;;;;;11.13;2.70;;;;;;;6.82;100.00;99901.75;5263390;54;1134466;-77
2024/02/04 17:30:36;;;;;;;4.63;1.27;;;;;;;6.79;100.00;99906.74;5283784;54;1136446;-78
2024/02/04 17:35:47;;;;;;;9.60;2.08;;;;;;;6.69;100.00;99898.69;5233004;54;1134897;-78
2024/02/04 17:40:49;;;;;;;3.75;1.85;;;;;;;6.63;100.00;99900.42;5284681;54;1134448;-78
2024/02/04 17:45:55;;;;;;;8.70;1.60;;;;;;;6.60;100.00;99894.07;5294594;54;1134561;-78
2024/02/04 17:51:00;;;;;;;7.10;1.80;;;;;;;6.53;100.00;99894.63;5324851;54;1134759;-77
2024/02/04 17:56:07;;;;;;;5.87;1.77;;;;;;;6.48;100.00;99885.75;5294196;54;1134417;-79
2024/02/04 18:01:23;;;;;;;4.93;2.13;;;;;;;6.50;100.00;99877.77;5289825;54;1134522;-78
2024/02/04 18:06:29;;;;;;;9.63;2.40;;;;;;;6.49;100.00;99876.08;5331996;54;1134727;-77
2024/02/04 18:11:35;;;;;;;8.73;1.70;;;;;;;6.58;100.00;99891.18;5315295;53;1135051;-79
2024/02/04 18:16:41;;;;;;;4.78;1.57;;;;;;;6.64;100.00;99892.91;5336220;54;1134304;-75
2024/02/04 18:21:46;;;;;;;5.57;1.53;;;;;;;6.70;100.00;99882.45;5311409;54;1134530;-76
2024/02/04 18:26:52;;;;;;;12.23;2.20;;;;;;;6.73;100.00;99883.52;5275699;54;1134764;-80
2024/02/04 18:31:59;;;;;;;8.10;1.83;;;;;;;6.77;100.00;99880.20;5226025;54;1136733;-80
2024/02/04 18:37:06;;;;;;;12.00;2.80;;;;;;;6.82;100.00;99867.58;5226434;54;1134800;-80
2024/02/04 18:42:12;;;;;;;13.10;3.90;;;;;;;6.84;100.00;99866.99;5256958;54;1138768;-78
2024/02/04 18:47:18;;;;;;;7.28;2.42;;;;;;;6.83;100.00;99844.29;5262589;54;1136500;-77
2024/02/04 18:52:24;;;;;;;6.13;1.90;;;;;;;6.85;100.00;99848.48;5271335;54;1134461;-76
2024/02/04 18:57:35;;;;;;;7.10;1.43;;;;;;;6.87;100.00;99851.01;5283500;54;1134610;-77
2024/02/04 19:02:41;;;;;;;1.96;1.26;;;;;;;6.88;100.00;99848.23;5263055;54;1134464;-79
2024/02/04 19:07:46;;;;;;;7.53;2.07;;;;;;;6.88;100.00;99851.34;5184999;54;1134320;-79
2024/02/04 19:12:52;;;;;;;8.23;2.22;;;;;;;6.88;100.00;99848.23;5207584;54;1136510;-79
2024/02/04 19:17:59;;;;;;;2.27;1.37;;;;;;;6.85;100.00;99841.92;5282950;54;1134354;-79
2024/02/04 19:23:06;;;;;;;4.50;1.37;;;;;;;6.83;100.00;99842.50;5296963;54;1134417;-79
2024/02/04 19:28:14;;;;;;;6.93;1.73;;;;;;;6.84;100.00;99842.03;5254147;54;1134584;-79
2024/02/04 19:33:20;;;;;;;3.90;1.20;;;;;;;6.83;100.00;99834.62;5283315;55;1134623;-77
2024/02/04 19:38:28;;;;;;;5.70;1.50;;;;;;;6.84;100.00;99838.08;5263392;54;1134599;-79
2024/02/04 19:43:36;;;;;;;9.23;1.57;;;;;;;6.83;100.00;99837.72;5279383;54;1134614;-78
2024/02/04 19:48:42;;;;;;;5.17;2.10;;;;;;;6.85;100.00;99831.88;5323502;54;1134799;-81
2024/02/04 19:53:55;;;;;;;8.13;1.67;;;;;;;6.85;100.00;99837.98;5244467;54;1135403;-79
2024/02/04 19:59:03;;;;;;;6.67;1.63;;;;;;;6.85;100.00;99834.03;5223045;54;1134971;-80
2024/02/04 20:04:17;;;;;;;9.70;1.57;;;;;;;6.86;100.00;99830.93;5348403;53;1134415;-77
2024/02/04 20:09:23;;;;;;;8.77;1.70;;;;;;;6.86;100.00;99809.91;5340267;54;1134320;-80
2024/02/04 20:14:33;;;;;;;9.80;1.73;;;;;;;6.87;100.00;99821.62;5295568;54;1134405;-76
2024/02/04 20:19:43;;;;;;;7.83;1.82;;;;;;;6.86;100.00;99816.47;5393443;54;1134692;-79
2024/02/04 20:24:49;;;;;;;6.87;1.43;;;;;;;6.89;100.00;99812.28;5260554;54;1134365;-83
2024/02/04 20:30:14;;;;;;;;;;;;;;;6.89;100.00;99801.77;5228719;55;1134965;-82
2024/02/04 20:35:27;;;;;;;6.97;2.07;;;;;;;6.88;100.00;99815.38;5116647;55;971582;-81
2024/02/04 20:40:34;;;;;;;3.97;1.50;;;;;;;6.88;100.00;99786.95;5130093;55;1132680;-81
2024/02/04 20:45:49;;;;;;;12.27;2.53;;;;;;;6.88;100.00;99803.55;5115232;55;1134614;-81
2024/02/04 20:50:53;;;;;;;5.55;1.90;;;;;;;6.86;100.00;99809.42;5108982;55;1138926;-81
2024/02/04 20:55:57;;;;;;;3.57;1.83;;;;;;;6.83;100.00;99796.98;5129454;55;1136586;-81
2024/02/04 21:01:06;;;;;;;4.83;1.50;;;;;;;6.81;100.00;99776.54;5127849;55;1136685;-82
